createdAt,value
2022-10-22T00:00:02.991Z,99046.81
2022-10-22T00:02:31.912Z,99041.69
2022-10-22T00:04:59.801Z,99044.53
2022-10-22T00:07:26.968Z,99047.47
2022-10-22T00:09:53.827Z,99042.81
2022-10-22T00:12:21.765Z,99054.50
2022-10-22T00:14:49.494Z,99058.38
2022-10-22T00:17:16.826Z,99062.00
2022-10-22T00:19:45.039Z,99064.25
2022-10-22T00:22:12.522Z,99058.56
2022-10-22T00:24:39.946Z,99046.97
2022-10-22T00:27:10.038Z,99051.72
2022-10-22T00:29:37.136Z,99048.28
2022-10-22T00:32:06.249Z,99043.19
2022-10-22T00:34:33.674Z,99037.81
2022-10-22T00:37:00.908Z,99034.19
2022-10-22T00:39:28.895Z,99042.94
2022-10-22T00:41:58.330Z,99047.63
2022-10-22T00:45:02.825Z,99040.44
2022-10-22T00:47:38.165Z,99039.84
2022-10-22T00:50:12.074Z,99035.06
2022-10-22T00:52:40.494Z,99036.72
2022-10-22T00:55:08.548Z,99026.94
2022-10-22T00:57:36.898Z,99043.72
2022-10-22T01:00:05.693Z,99041.13
2022-10-22T01:02:33.191Z,99029.53
2022-10-22T01:05:00.056Z,99024.25
2022-10-22T01:07:27.486Z,99020.59
2022-10-22T01:10:09.338Z,99016.97
2022-10-22T01:12:55.572Z,99021.56
2022-10-22T01:15:26.015Z,99028.34
2022-10-22T01:18:18.971Z,99023.94
2022-10-22T01:21:41.173Z,99014.53
2022-10-22T01:24:42.229Z,99024.00
2022-10-22T01:27:24.085Z,99015.47
2022-10-22T01:30:03.374Z,99015.28
2022-10-22T01:32:40.033Z,99010.91
2022-10-22T01:35:11.000Z,99016.13
2022-10-22T01:37:53.473Z,99015.09
2022-10-22T01:40:23.251Z,99018.38
2022-10-22T01:43:01.233Z,99018.72
2022-10-22T01:45:51.041Z,99016.81
2022-10-22T01:48:43.655Z,99015.09
2022-10-22T01:52:00.379Z,98998.44
2022-10-22T01:55:00.766Z,98989.13
2022-10-22T01:57:45.228Z,98995.84
2022-10-22T02:00:15.357Z,98989.91
2022-10-22T02:05:24.798Z,98986.47
2022-10-22T02:08:17.685Z,98986.28
2022-10-22T02:10:47.576Z,98982.75
2022-10-22T02:13:21.822Z,98978.03
2022-10-22T02:15:51.814Z,98984.63
2022-10-22T02:18:22.291Z,98988.28
2022-10-22T02:20:51.581Z,99002.19
2022-10-22T02:23:19.132Z,99009.56
2022-10-22T02:25:51.670Z,99002.38
2022-10-22T02:28:27.604Z,99012.44
2022-10-22T02:30:59.690Z,99001.59
2022-10-22T02:33:40.422Z,99006.22
2022-10-22T02:36:09.094Z,99014.63
2022-10-22T02:38:37.196Z,99007.38
2022-10-22T02:41:05.736Z,99010.22
2022-10-22T02:43:40.778Z,99006.84
2022-10-22T02:46:09.370Z,99014.72
2022-10-22T02:48:36.613Z,99007.63
2022-10-22T02:51:04.138Z,99013.56
2022-10-22T02:53:32.076Z,99012.41
2022-10-22T02:55:59.844Z,99014.28
2022-10-22T02:58:26.743Z,99021.88
2022-10-22T03:00:54.601Z,99021.59
2022-10-22T03:03:22.100Z,99022.38
2022-10-22T03:05:50.988Z,99018.78
2022-10-22T03:08:18.796Z,99021.47
2022-10-22T03:10:45.952Z,99022.97
2022-10-22T03:13:12.946Z,99015.13
2022-10-22T03:15:40.458Z,99022.97
2022-10-22T03:18:07.382Z,99026.31
2022-10-22T03:20:34.591Z,99030.13
2022-10-22T03:23:03.325Z,99028.91
2022-10-22T03:25:34.573Z,99027.06
2022-10-22T03:28:05.649Z,99019.44
2022-10-22T03:30:32.937Z,99023.84
2022-10-22T03:32:59.788Z,99028.06
2022-10-22T03:35:27.426Z,99034.78
2022-10-22T03:37:54.867Z,99026.16
2022-10-22T03:40:22.250Z,99026.47
2022-10-22T03:42:49.837Z,99026.22
2022-10-22T03:45:16.991Z,99030.16
2022-10-22T03:47:43.907Z,99035.63
2022-10-22T03:50:11.839Z,99039.75
2022-10-22T03:52:40.078Z,99035.03
2022-10-22T03:55:08.471Z,99034.94
2022-10-22T03:57:35.983Z,99033.13
2022-10-22T04:00:05.854Z,99032.97
2022-10-22T04:02:32.735Z,99037.56
2022-10-22T04:05:00.752Z,99037.16
2022-10-22T04:07:27.716Z,99034.84
2022-10-22T04:09:54.829Z,99040.28
2022-10-22T04:12:21.968Z,99034.84
2022-10-22T04:14:49.062Z,99027.25
2022-10-22T04:17:16.057Z,99034.13
2022-10-22T04:19:43.788Z,99039.38
2022-10-22T04:22:10.703Z,99031.06
2022-10-22T04:24:38.341Z,99031.06
2022-10-22T04:27:05.493Z,99033.00
2022-10-22T04:29:32.641Z,99029.66
2022-10-22T04:31:59.648Z,99038.81
2022-10-22T04:34:30.041Z,99042.84
2022-10-22T04:36:57.251Z,99037.28
2022-10-22T04:39:24.218Z,99034.56
2022-10-22T04:41:51.823Z,99042.81
2022-10-22T04:44:18.655Z,99041.72
2022-10-22T04:46:46.124Z,99053.78
2022-10-22T04:49:13.329Z,99042.41
2022-10-22T04:51:40.518Z,99039.22
2022-10-22T04:54:07.467Z,99041.22
2022-10-22T04:56:34.917Z,99040.47
2022-10-22T04:59:06.911Z,99037.28
2022-10-22T05:01:42.728Z,99032.84
2022-10-22T05:04:16.564Z,99037.81
2022-10-22T05:06:44.540Z,99035.22
2022-10-22T05:09:14.338Z,99044.28
2022-10-22T05:11:46.524Z,99045.59
2022-10-22T05:14:14.162Z,99037.75
2022-10-22T05:16:41.089Z,99038.22
2022-10-22T05:19:09.103Z,99059.88
2022-10-22T05:21:37.797Z,99055.38
2022-10-22T05:24:05.333Z,99043.88
2022-10-22T05:26:32.559Z,99057.97
2022-10-22T05:28:59.851Z,99058.13
2022-10-22T05:31:28.880Z,99066.84
2022-10-22T05:33:56.392Z,99050.31
2022-10-22T05:36:23.446Z,99056.19
2022-10-22T05:38:51.377Z,99052.50
2022-10-22T05:41:23.629Z,99054.81
2022-10-22T05:43:51.493Z,99057.22
2022-10-22T05:46:22.881Z,99057.44
2022-10-22T05:48:58.246Z,99053.53
2022-10-22T05:51:26.752Z,99060.72
2022-10-22T05:54:01.884Z,99065.78
2022-10-22T05:56:30.679Z,99060.59
2022-10-22T05:58:57.940Z,99059.06
2022-10-22T06:01:30.898Z,99056.69
2022-10-22T06:04:00.513Z,99058.63
2022-10-22T06:06:38.369Z,99059.00
2022-10-22T06:09:17.143Z,99061.91
2022-10-22T06:11:45.133Z,99071.91
2022-10-22T06:14:12.714Z,99073.03
2022-10-22T06:16:39.892Z,99074.88
2022-10-22T06:19:06.963Z,99057.03
2022-10-22T06:21:34.081Z,99061.47
2022-10-22T06:24:02.410Z,99063.59
2022-10-22T06:26:29.516Z,99054.75
2022-10-22T06:28:57.206Z,99067.38
2022-10-22T06:31:26.092Z,99056.97
2022-10-22T06:33:53.223Z,99059.03
2022-10-22T06:36:22.972Z,99066.06
2022-10-22T06:38:54.652Z,99066.09
2022-10-22T06:41:24.348Z,99063.22
2022-10-22T06:43:54.286Z,99064.88
2022-10-22T06:46:22.149Z,99067.78
2022-10-22T06:48:57.255Z,99064.91
2022-10-22T06:51:25.053Z,99055.75
2022-10-22T06:53:52.047Z,99059.06
2022-10-22T06:56:21.108Z,99053.22
2022-10-22T06:58:52.448Z,99052.72
2022-10-22T07:01:21.916Z,99057.97
2022-10-22T07:03:51.422Z,99066.88
2022-10-22T07:06:20.060Z,99059.22
2022-10-22T07:08:47.149Z,99064.66
2022-10-22T07:11:15.326Z,99058.44
2022-10-22T07:13:43.103Z,99064.00
2022-10-22T07:16:11.210Z,99065.03
2022-10-22T07:18:39.289Z,99060.97
2022-10-22T07:21:07.657Z,99062.09
2022-10-22T07:23:34.806Z,99065.81
2022-10-22T07:26:07.316Z,99061.53
2022-10-22T07:28:40.000Z,99053.81
2022-10-22T07:31:09.980Z,99058.44
2022-10-22T07:33:37.777Z,99057.94
2022-10-22T07:36:08.358Z,99056.47
2022-10-22T07:38:36.242Z,99056.94
2022-10-22T07:41:03.825Z,99043.84
2022-10-22T07:43:30.804Z,99047.25
2022-10-22T07:45:57.783Z,99036.09
2022-10-22T07:48:24.733Z,99041.06
2022-10-22T07:50:52.095Z,99033.00
2022-10-22T07:53:19.957Z,99034.91
2022-10-22T07:55:51.302Z,99037.09
2022-10-22T07:58:19.661Z,99046.72
2022-10-22T08:00:47.151Z,99049.34
2022-10-22T08:03:15.647Z,99046.59
2022-10-22T08:05:45.763Z,99052.06
2022-10-22T08:08:14.356Z,99042.06
2022-10-22T08:10:41.533Z,99048.53
2022-10-22T08:13:08.878Z,99049.97
2022-10-22T08:15:36.259Z,99050.41
2022-10-22T08:18:03.451Z,99053.56
2022-10-22T08:20:30.618Z,99053.47
2022-10-22T08:22:58.179Z,99057.50
2022-10-22T08:25:25.291Z,99061.97
2022-10-22T08:27:52.411Z,99057.13
2022-10-22T08:30:20.134Z,99060.28
2022-10-22T08:32:49.305Z,99062.28
2022-10-22T08:35:18.617Z,99059.31
2022-10-22T08:37:45.538Z,99051.75
2022-10-22T08:40:23.363Z,99044.88
2022-10-22T08:43:12.148Z,99033.03
2022-10-22T08:45:39.929Z,99028.56
2022-10-22T08:48:53.307Z,99019.97
2022-10-22T08:51:26.525Z,99022.28
2022-10-22T08:54:07.292Z,99033.06
2022-10-22T08:56:38.310Z,99019.91
2022-10-22T08:59:20.354Z,99022.19
2022-10-22T09:01:49.612Z,99023.88
2022-10-22T09:04:26.423Z,99007.66
2022-10-22T09:06:55.374Z,99000.47
2022-10-22T09:09:24.201Z,98999.00
2022-10-22T09:11:53.446Z,98991.59
2022-10-22T09:14:23.729Z,98974.75
2022-10-22T09:17:09.951Z,98992.63
2022-10-22T09:20:02.873Z,98994.06
2022-10-22T09:22:44.610Z,98994.22
2022-10-22T09:25:21.381Z,99001.19
2022-10-22T09:27:50.206Z,99000.09
2022-10-22T09:30:22.291Z,99004.00
2022-10-22T09:33:15.169Z,98992.13
2022-10-22T09:36:12.596Z,98999.19
2022-10-22T09:38:45.617Z,99000.16
2022-10-22T09:41:13.236Z,99002.31
2022-10-22T09:43:40.143Z,98996.88
2022-10-22T09:46:15.403Z,98977.53
2022-10-22T09:48:47.088Z,98982.22
2022-10-22T09:51:36.118Z,98976.94
2022-10-22T09:54:15.678Z,98973.84
2022-10-22T09:56:46.862Z,98975.34
2022-10-22T09:59:18.681Z,98972.91
2022-10-22T10:01:45.764Z,98967.69
2022-10-22T10:04:16.119Z,98975.97
2022-10-22T10:06:44.971Z,98962.19
2022-10-22T10:09:21.135Z,98961.09
2022-10-22T10:11:51.364Z,98959.78
2022-10-22T10:14:37.615Z,98955.56
2022-10-22T10:17:28.224Z,98953.38
2022-10-22T10:20:16.526Z,98942.63
2022-10-22T10:23:08.680Z,98937.66
2022-10-22T10:25:50.887Z,98927.69
2022-10-22T10:28:27.942Z,98916.81
2022-10-22T10:31:00.054Z,98912.44
2022-10-22T10:34:04.683Z,98912.53
2022-10-22T10:36:37.577Z,98908.84
2022-10-22T10:39:28.824Z,98907.88
2022-10-22T10:42:14.753Z,98902.81
2022-10-22T10:45:09.592Z,98897.72
2022-10-22T10:47:59.427Z,98882.09
2022-10-22T10:50:54.469Z,98884.34
2022-10-22T10:53:40.108Z,98875.31
2022-10-22T10:56:33.447Z,98866.47
2022-10-22T10:59:11.560Z,98854.00
2022-10-22T11:02:00.855Z,98857.41
2022-10-22T11:04:56.110Z,98854.34
2022-10-22T11:07:34.701Z,98849.50
2022-10-22T11:10:40.217Z,98844.84
2022-10-22T11:13:14.674Z,98842.91
2022-10-22T11:15:46.332Z,98827.44
2022-10-22T11:18:24.316Z,98829.09
2022-10-22T11:21:01.667Z,98820.63
2022-10-22T11:23:44.972Z,98828.22
2022-10-22T11:26:22.397Z,98819.41
2022-10-22T11:28:53.897Z,98825.22
2022-10-22T11:31:25.446Z,98812.06
2022-10-22T11:34:32.699Z,98802.94
2022-10-22T11:37:01.350Z,98804.13
2022-10-22T11:39:43.665Z,98797.38
2022-10-22T11:42:18.378Z,98788.59
2022-10-22T11:45:01.928Z,98789.28
2022-10-22T11:47:53.957Z,98781.81
2022-10-22T11:50:25.622Z,98778.44
2022-10-22T11:53:02.864Z,98776.75
2022-10-22T11:55:48.801Z,98768.50
2022-10-22T11:58:34.493Z,98763.84
2022-10-22T12:01:10.314Z,98752.81
2022-10-22T12:03:41.356Z,98756.16
2022-10-22T12:06:12.236Z,98744.63
2022-10-22T12:08:54.550Z,98757.16
2022-10-22T12:11:39.636Z,98749.69
2022-10-22T12:14:30.523Z,98743.47
2022-10-22T12:17:14.578Z,98732.72
2022-10-22T12:19:58.496Z,98733.56
2022-10-22T12:22:36.194Z,98714.16
2022-10-22T12:25:17.301Z,98723.31
2022-10-22T12:27:45.089Z,98719.50
2022-10-22T12:30:20.076Z,98721.63
2022-10-22T12:32:48.830Z,98715.69
2022-10-22T12:35:22.189Z,98719.28
2022-10-22T12:37:54.346Z,98716.25
2022-10-22T12:40:23.730Z,98709.28
2022-10-22T12:43:15.419Z,98706.44
2022-10-22T12:45:50.361Z,98703.81
2022-10-22T12:48:40.143Z,98694.63
2022-10-22T12:51:09.846Z,98701.97
2022-10-22T12:53:43.391Z,98689.97
2022-10-22T12:56:16.260Z,98690.28
2022-10-22T12:58:47.102Z,98689.50
2022-10-22T13:01:17.670Z,98687.53
2022-10-22T13:03:50.448Z,98692.59
2022-10-22T13:06:20.450Z,98685.22
2022-10-22T13:09:03.973Z,98679.63
2022-10-22T13:11:40.273Z,98679.13
2022-10-22T13:14:29.923Z,98673.41
2022-10-22T13:17:19.346Z,98676.72
2022-10-22T13:19:52.703Z,98677.94
2022-10-22T13:22:29.155Z,98677.34
2022-10-22T13:24:59.020Z,98667.81
2022-10-22T13:27:33.002Z,98670.25
2022-10-22T13:30:09.579Z,98659.72
2022-10-22T13:32:36.774Z,98657.09
2022-10-22T13:35:04.553Z,98661.31
2022-10-22T13:37:34.387Z,98658.91
2022-10-22T13:40:01.519Z,98658.53
2022-10-22T13:42:28.741Z,98660.94
2022-10-22T13:44:55.701Z,98653.22
2022-10-22T13:47:29.099Z,98665.69
2022-10-22T13:50:00.137Z,98656.19
2022-10-22T13:52:57.188Z,98649.25
2022-10-22T13:55:26.913Z,98643.16
2022-10-22T13:58:03.780Z,98646.91
2022-10-22T14:00:31.376Z,98654.59
2022-10-22T14:03:00.014Z,98654.97
2022-10-22T14:05:27.454Z,98649.53
2022-10-22T14:07:54.395Z,98658.34
2022-10-22T14:10:24.020Z,98660.88
2022-10-22T14:12:53.632Z,98658.81
2022-10-22T14:15:24.116Z,98659.50
2022-10-22T14:17:57.848Z,98662.09
2022-10-22T14:20:28.486Z,98661.16
2022-10-22T14:22:55.602Z,98652.25
2022-10-22T14:25:26.796Z,98652.59
2022-10-22T14:27:53.760Z,98653.28
2022-10-22T14:30:27.174Z,98662.25
2022-10-22T14:32:54.327Z,98657.75
2022-10-22T14:35:22.887Z,98658.69
2022-10-22T14:37:50.194Z,98662.28
2022-10-22T14:40:20.125Z,98658.59
2022-10-22T14:42:48.942Z,98657.25
2022-10-22T14:45:22.398Z,98668.72
2022-10-22T14:47:50.553Z,98673.34
2022-10-22T14:50:19.010Z,98658.16
2022-10-22T14:52:46.229Z,98669.34
2022-10-22T14:55:15.353Z,98673.91
2022-10-22T14:57:42.889Z,98669.97
2022-10-22T15:00:13.585Z,98672.59
2022-10-22T15:02:40.762Z,98675.63
2022-10-22T15:05:08.427Z,98663.53
2022-10-22T15:07:36.481Z,98664.50
2022-10-22T15:10:04.917Z,98650.63
2022-10-22T15:12:31.911Z,98653.38
2022-10-22T15:14:58.815Z,98666.72
2022-10-22T15:17:26.018Z,98660.03
2022-10-22T15:19:53.419Z,98670.50
2022-10-22T15:22:20.476Z,98656.44
2022-10-22T15:24:48.642Z,98662.19
2022-10-22T15:27:15.959Z,98666.19
2022-10-22T15:29:42.981Z,98667.03
2022-10-22T15:32:10.587Z,98669.34
2022-10-22T15:34:39.172Z,98670.47
2022-10-22T15:37:09.762Z,98679.22
2022-10-22T15:39:40.354Z,98684.53
2022-10-22T15:42:08.043Z,98668.94
2022-10-22T15:44:35.249Z,98658.41
2022-10-22T15:47:07.261Z,98660.03
2022-10-22T15:49:37.026Z,98663.84
2022-10-22T15:52:05.198Z,98666.78
2022-10-22T15:54:32.997Z,98675.84
2022-10-22T15:57:03.664Z,98675.50
2022-10-22T15:59:30.834Z,98680.59
2022-10-22T16:01:57.990Z,98675.47
2022-10-22T16:04:24.965Z,98683.34
2022-10-22T16:06:53.681Z,98676.00
2022-10-22T16:09:23.359Z,98680.94
2022-10-22T16:11:51.108Z,98672.91
2022-10-22T16:14:20.614Z,98676.94
2022-10-22T16:16:50.264Z,98680.00
2022-10-22T16:19:18.893Z,98685.88
2022-10-22T16:21:46.493Z,98695.91
2022-10-22T16:24:13.494Z,98700.47
2022-10-22T16:26:42.203Z,98696.53
2022-10-22T16:40:30.995Z,98707.31
2022-10-22T16:42:58.237Z,98714.19
2022-10-22T16:45:25.193Z,98712.78
2022-10-22T16:47:53.105Z,98705.53
2022-10-22T16:50:20.054Z,98709.53
2022-10-22T16:52:47.507Z,98705.34
2022-10-22T16:55:14.680Z,98706.78
2022-10-22T16:57:42.065Z,98700.53
2022-10-22T17:00:10.082Z,98696.19
2022-10-22T17:02:38.113Z,98702.97
2022-10-22T17:05:05.618Z,98701.59
2022-10-22T17:07:32.899Z,98707.47
2022-10-22T17:10:01.910Z,98709.25
2022-10-22T17:12:35.469Z,98711.91
2022-10-22T17:15:05.360Z,98709.66
2022-10-22T17:17:33.585Z,98711.81
2022-10-22T17:20:01.001Z,98714.16
2022-10-22T17:22:28.529Z,98714.44
2022-10-22T17:25:16.723Z,98712.50
2022-10-22T17:27:45.322Z,98718.47
2022-10-22T17:30:22.014Z,98720.91
2022-10-22T17:32:54.686Z,98718.69
2022-10-22T17:35:22.037Z,98723.28
2022-10-22T17:37:49.696Z,98728.63
2022-10-22T17:40:17.305Z,98728.91
2022-10-22T17:42:45.603Z,98726.50
2022-10-22T17:45:12.657Z,98724.53
2022-10-22T17:47:40.674Z,98726.81
2022-10-22T17:50:08.456Z,98724.25
2022-10-22T17:52:35.850Z,98729.97
2022-10-22T17:55:03.922Z,98724.97
2022-10-22T17:57:34.383Z,98715.41
2022-10-22T18:00:03.805Z,98716.25
2022-10-22T18:02:32.748Z,98719.16
2022-10-22T18:04:59.656Z,98723.00
2022-10-22T18:07:27.275Z,98726.88
2022-10-22T18:09:54.376Z,98723.59
2022-10-22T18:12:21.898Z,98719.59
2022-10-22T18:14:50.303Z,98720.28
2022-10-22T18:17:17.797Z,98723.16
2022-10-22T18:19:44.734Z,98720.75
2022-10-22T18:22:12.339Z,98727.88
2022-10-22T18:24:40.334Z,98739.28
2022-10-22T18:27:08.267Z,98730.44
2022-10-22T18:29:35.201Z,98745.72
2022-10-22T18:32:10.734Z,98734.00
2022-10-22T18:34:40.388Z,98732.31
2022-10-22T18:37:07.708Z,98741.72
2022-10-22T18:39:35.131Z,98731.19
2022-10-22T18:42:06.304Z,98733.47
2022-10-22T18:44:35.328Z,98738.47
2022-10-22T18:47:02.642Z,98740.63
2022-10-22T18:49:30.402Z,98742.06
2022-10-22T18:51:57.618Z,98750.66
2022-10-22T18:54:25.008Z,98752.94
2022-10-22T18:56:55.535Z,98750.09
2022-10-22T18:59:26.647Z,98758.50
2022-10-22T19:01:55.797Z,98754.81
2022-10-22T19:04:23.545Z,98753.47
2022-10-22T19:06:50.952Z,98749.75
2022-10-22T19:09:18.627Z,98748.34
2022-10-22T19:11:46.292Z,98758.31
2022-10-22T19:14:15.633Z,98755.75
2022-10-22T19:16:42.676Z,98760.44
2022-10-22T19:19:11.431Z,98770.28
2022-10-22T19:21:38.882Z,98766.72
2022-10-22T19:24:07.096Z,98742.03
2022-10-22T19:26:34.282Z,98766.59
2022-10-22T19:29:03.391Z,98755.91
2022-10-22T19:31:31.537Z,98754.44
2022-10-22T19:34:02.217Z,98754.56
2022-10-22T19:36:33.048Z,98749.16
2022-10-22T19:39:00.902Z,98758.31
2022-10-22T19:41:29.326Z,98763.16
2022-10-22T19:43:58.258Z,98760.13
2022-10-22T19:46:26.736Z,98757.09
2022-10-22T19:48:56.583Z,98770.81
2022-10-22T19:51:26.273Z,98767.78
2022-10-22T19:54:05.812Z,98758.66
2022-10-22T19:56:35.349Z,98756.47
2022-10-22T19:59:04.160Z,98775.03
2022-10-22T20:01:32.305Z,98770.00
2022-10-22T20:04:00.684Z,98766.13
2022-10-22T20:06:28.224Z,98772.97
2022-10-22T20:08:56.297Z,98784.66
2022-10-22T20:11:27.173Z,98784.22
2022-10-22T20:13:54.726Z,98777.75
2022-10-22T20:16:24.424Z,98776.03
2022-10-22T20:18:52.961Z,98769.06
2022-10-22T20:21:20.426Z,98772.16
2022-10-22T20:23:51.329Z,98776.13
2022-10-22T20:26:19.030Z,98768.41
2022-10-22T20:28:45.955Z,98778.50
2022-10-22T20:31:16.458Z,98780.50
2022-10-22T20:33:43.697Z,98784.44
2022-10-22T20:36:16.515Z,98796.31
2022-10-22T20:38:43.680Z,98791.97
2022-10-22T20:41:12.831Z,98796.06
2022-10-22T20:43:39.952Z,98792.75
2022-10-22T20:46:06.961Z,98790.09
2022-10-22T20:48:33.921Z,98809.47
2022-10-22T20:51:01.775Z,98813.03
2022-10-22T20:53:28.843Z,98812.31
2022-10-22T20:55:59.164Z,98811.47
2022-10-22T20:58:27.794Z,98806.78
2022-10-22T21:00:55.627Z,98800.66
2022-10-22T21:03:23.054Z,98804.84
2022-10-22T21:05:50.279Z,98801.56
2022-10-22T21:08:17.848Z,98800.25
2022-10-22T21:10:48.983Z,98805.03
2022-10-22T21:13:17.017Z,98809.13
2022-10-22T21:15:43.965Z,98798.09
2022-10-22T21:18:11.158Z,98804.75
2022-10-22T21:20:40.859Z,98817.38
2022-10-22T21:23:08.364Z,98814.81
2022-10-22T21:25:39.510Z,98819.63
2022-10-22T21:28:09.066Z,98821.94
2022-10-22T21:30:36.044Z,98815.56
2022-10-22T21:33:02.985Z,98816.94
2022-10-22T21:35:30.151Z,98814.81
2022-10-22T21:37:57.058Z,98814.94
2022-10-22T21:40:24.074Z,98816.94
2022-10-22T21:42:51.262Z,98817.28
2022-10-22T21:45:22.057Z,98825.88
2022-10-22T21:47:49.488Z,98827.53
2022-10-22T21:50:16.466Z,98832.06
2022-10-22T21:52:43.472Z,98814.41
2022-10-22T21:55:10.446Z,98823.00
2022-10-22T21:57:37.379Z,98810.25
2022-10-22T22:00:06.716Z,98803.72
2022-10-22T22:02:33.919Z,98806.81
2022-10-22T22:05:00.848Z,98822.78
2022-10-22T22:07:27.895Z,98813.91
2022-10-22T22:09:54.956Z,98809.41
2022-10-22T22:12:21.877Z,98822.16
2022-10-22T22:14:48.958Z,98822.25
2022-10-22T22:17:16.687Z,98819.69
2022-10-22T22:19:43.617Z,98809.75
2022-10-22T22:22:10.565Z,98803.75
2022-10-22T22:24:39.902Z,98805.94
2022-10-22T22:27:07.283Z,98802.63
2022-10-22T22:29:34.931Z,98793.06
2022-10-22T22:32:02.054Z,98784.38
2022-10-22T22:34:28.910Z,98803.38
2022-10-22T22:36:55.920Z,98805.56
2022-10-22T22:39:23.952Z,98800.78
2022-10-22T22:41:51.243Z,98790.72
2022-10-22T22:44:18.332Z,98804.59
2022-10-22T22:46:45.339Z,98798.19
2022-10-22T22:49:13.678Z,98798.47
2022-10-22T22:51:40.609Z,98803.59
2022-10-22T22:54:07.594Z,98779.31
2022-10-22T22:56:35.167Z,98781.78
2022-10-22T22:59:02.579Z,98790.84
2022-10-22T23:01:35.658Z,98769.03
2022-10-22T23:04:16.381Z,98775.16
2022-10-22T23:06:43.516Z,98775.41
2022-10-22T23:09:13.080Z,98794.78
2022-10-22T23:11:41.556Z,98784.84
2022-10-22T23:14:11.688Z,98781.03
2022-10-22T23:16:42.455Z,98796.59
2022-10-22T23:19:10.425Z,98790.09
2022-10-22T23:21:40.000Z,98793.88
2022-10-22T23:24:10.004Z,98797.56
2022-10-22T23:26:40.210Z,98794.75
2022-10-22T23:29:15.758Z,98789.72
2022-10-22T23:31:43.923Z,98785.94
2022-10-22T23:34:14.741Z,98788.38
2022-10-22T23:36:41.830Z,98779.69
2022-10-22T23:39:12.343Z,98780.03
2022-10-22T23:41:39.687Z,98800.66
2022-10-22T23:44:08.138Z,98786.19
2022-10-22T23:46:35.582Z,98770.88
2022-10-22T23:49:02.563Z,98773.44
2022-10-22T23:51:29.555Z,98773.44
2022-10-22T23:54:02.572Z,98779.19
2022-10-22T23:56:29.607Z,98771.84
2022-10-22T23:58:57.522Z,98778.94
